sensor_id;sensor_type;location;lat;lon;timestamp;P1;durP1;ratioP1;P2;durP2;ratioP2
2720;SDS011;1368;49.484;11.112;2023-04-15T00:00:27;17.73;;;13.00;;
2720;SDS011;1368;49.484;11.112;2023-04-15T00:02:53;14.77;;;12.17;;
2720;SDS011;1368;49.484;11.112;2023-04-15T00:05:19;16.40;;;13.10;;
2720;SDS011;1368;49.484;11.112;2023-04-15T00:07:45;17.10;;;14.10;;
2720;SDS011;1368;49.484;11.112;2023-04-15T00:10:11;14.40;;;12.47;;
2720;SDS011;1368;49.484;11.112;2023-04-15T00:12:38;16.20;;;12.93;;
2720;SDS011;1368;49.484;11.112;2023-04-15T00:15:05;20.13;;;15.63;;
2720;SDS011;1368;49.484;11.112;2023-04-15T00:17:32;17.20;;;14.63;;
2720;SDS011;1368;49.484;11.112;2023-04-15T00:19:58;16.90;;;12.70;;
2720;SDS011;1368;49.484;11.112;2023-04-15T00:22:24;14.93;;;13.30;;
2720;SDS011;1368;49.484;11.112;2023-04-15T00:24:51;19.17;;;13.20;;
2720;SDS011;1368;49.484;11.112;2023-04-15T00:27:17;18.90;;;12.50;;
2720;SDS011;1368;49.484;11.112;2023-04-15T00:29:43;14.83;;;12.87;;
2720;SDS011;1368;49.484;11.112;2023-04-15T00:32:09;14.70;;;12.30;;
2720;SDS011;1368;49.484;11.112;2023-04-15T00:34:34;15.33;;;12.43;;
2720;SDS011;1368;49.484;11.112;2023-04-15T00:37:00;14.67;;;12.77;;
2720;SDS011;1368;49.484;11.112;2023-04-15T00:39:26;16.70;;;13.53;;
2720;SDS011;1368;49.484;11.112;2023-04-15T00:41:52;15.10;;;12.23;;
2720;SDS011;1368;49.484;11.112;2023-04-15T00:44:18;17.53;;;12.90;;
2720;SDS011;1368;49.484;11.112;2023-04-15T00:46:44;14.97;;;12.70;;
2720;SDS011;1368;49.484;11.112;2023-04-15T00:49:10;17.37;;;13.77;;
2720;SDS011;1368;49.484;11.112;2023-04-15T00:51:37;16.50;;;12.27;;
2720;SDS011;1368;49.484;11.112;2023-04-15T00:54:02;18.40;;;13.13;;
2720;SDS011;1368;49.484;11.112;2023-04-15T00:56:29;14.80;;;12.70;;
2720;SDS011;1368;49.484;11.112;2023-04-15T00:58:55;21.97;;;13.93;;
2720;SDS011;1368;49.484;11.112;2023-04-15T01:01:23;17.40;;;13.80;;
2720;SDS011;1368;49.484;11.112;2023-04-15T01:03:50;18.53;;;13.50;;
2720;SDS011;1368;49.484;11.112;2023-04-15T01:06:16;14.97;;;12.77;;
2720;SDS011;1368;49.484;11.112;2023-04-15T01:08:42;21.00;;;13.33;;
2720;SDS011;1368;49.484;11.112;2023-04-15T01:11:09;19.07;;;11.77;;
2720;SDS011;1368;49.484;11.112;2023-04-15T01:13:36;16.40;;;12.33;;
2720;SDS011;1368;49.484;11.112;2023-04-15T01:16:01;19.57;;;13.70;;
2720;SDS011;1368;49.484;11.112;2023-04-15T01:18:27;16.53;;;12.60;;
2720;SDS011;1368;49.484;11.112;2023-04-15T01:20:54;16.37;;;13.07;;
2720;SDS011;1368;49.484;11.112;2023-04-15T01:23:20;16.87;;;13.30;;
2720;SDS011;1368;49.484;11.112;2023-04-15T01:25:47;15.33;;;13.73;;
2720;SDS011;1368;49.484;11.112;2023-04-15T01:28:13;16.90;;;12.87;;
2720;SDS011;1368;49.484;11.112;2023-04-15T01:30:40;17.23;;;13.50;;
2720;SDS011;1368;49.484;11.112;2023-04-15T01:33:05;17.80;;;12.83;;
2720;SDS011;1368;49.484;11.112;2023-04-15T01:35:31;14.67;;;12.93;;
2720;SDS011;1368;49.484;11.112;2023-04-15T01:38:00;15.47;;;11.60;;
2720;SDS011;1368;49.484;11.112;2023-04-15T01:40:30;13.87;;;12.03;;
2720;SDS011;1368;49.484;11.112;2023-04-15T01:42:55;20.33;;;12.77;;
2720;SDS011;1368;49.484;11.112;2023-04-15T01:45:21;17.77;;;13.50;;
2720;SDS011;1368;49.484;11.112;2023-04-15T01:47:47;17.23;;;12.20;;
2720;SDS011;1368;49.484;11.112;2023-04-15T01:50:13;15.23;;;11.67;;
2720;SDS011;1368;49.484;11.112;2023-04-15T01:52:39;16.13;;;12.07;;
2720;SDS011;1368;49.484;11.112;2023-04-15T01:55:05;17.50;;;12.93;;
2720;SDS011;1368;49.484;11.112;2023-04-15T01:57:32;14.60;;;12.30;;
2720;SDS011;1368;49.484;11.112;2023-04-15T01:59:58;15.90;;;11.83;;
2720;SDS011;1368;49.484;11.112;2023-04-15T02:02:23;25.77;;;14.50;;
2720;SDS011;1368;49.484;11.112;2023-04-15T02:04:49;13.77;;;11.40;;
2720;SDS011;1368;49.484;11.112;2023-04-15T02:07:15;18.07;;;13.17;;
2720;SDS011;1368;49.484;11.112;2023-04-15T02:09:41;16.27;;;12.77;;
2720;SDS011;1368;49.484;11.112;2023-04-15T02:12:07;20.03;;;12.30;;
2720;SDS011;1368;49.484;11.112;2023-04-15T02:14:33;13.53;;;11.63;;
2720;SDS011;1368;49.484;11.112;2023-04-15T02:16:59;18.93;;;14.03;;
2720;SDS011;1368;49.484;11.112;2023-04-15T02:19:31;15.00;;;12.73;;
2720;SDS011;1368;49.484;11.112;2023-04-15T02:21:57;16.10;;;12.93;;
2720;SDS011;1368;49.484;11.112;2023-04-15T02:24:23;17.00;;;13.07;;
2720;SDS011;1368;49.484;11.112;2023-04-15T02:26:49;19.00;;;13.53;;
2720;SDS011;1368;49.484;11.112;2023-04-15T02:29:15;15.93;;;13.90;;
2720;SDS011;1368;49.484;11.112;2023-04-15T02:31:40;16.83;;;12.60;;
2720;SDS011;1368;49.484;11.112;2023-04-15T02:34:06;16.23;;;13.30;;
2720;SDS011;1368;49.484;11.112;2023-04-15T02:36:32;19.03;;;15.40;;
2720;SDS011;1368;49.484;11.112;2023-04-15T02:38:58;15.63;;;13.00;;
2720;SDS011;1368;49.484;11.112;2023-04-15T02:41:24;16.10;;;13.03;;
2720;SDS011;1368;49.484;11.112;2023-04-15T02:43:51;15.33;;;12.50;;
2720;SDS011;1368;49.484;11.112;2023-04-15T02:46:17;17.10;;;14.03;;
2720;SDS011;1368;49.484;11.112;2023-04-15T02:48:42;16.77;;;13.33;;
2720;SDS011;1368;49.484;11.112;2023-04-15T02:51:12;19.63;;;14.50;;
2720;SDS011;1368;49.484;11.112;2023-04-15T02:53:38;19.70;;;12.73;;
2720;SDS011;1368;49.484;11.112;2023-04-15T02:56:04;17.30;;;13.00;;
2720;SDS011;1368;49.484;11.112;2023-04-15T02:58:30;16.63;;;13.03;;
2720;SDS011;1368;49.484;11.112;2023-04-15T03:00:56;15.13;;;12.70;;
2720;SDS011;1368;49.484;11.112;2023-04-15T03:03:21;14.97;;;13.33;;
2720;SDS011;1368;49.484;11.112;2023-04-15T03:05:47;15.50;;;11.87;;
2720;SDS011;1368;49.484;11.112;2023-04-15T03:08:12;16.70;;;12.40;;
2720;SDS011;1368;49.484;11.112;2023-04-15T03:10:38;14.57;;;11.20;;
2720;SDS011;1368;49.484;11.112;2023-04-15T03:13:04;15.80;;;12.40;;
2720;SDS011;1368;49.484;11.112;2023-04-15T03:15:31;14.40;;;11.77;;
2720;SDS011;1368;49.484;11.112;2023-04-15T03:17:57;14.60;;;11.63;;
2720;SDS011;1368;49.484;11.112;2023-04-15T03:20:22;14.93;;;12.47;;
2720;SDS011;1368;49.484;11.112;2023-04-15T03:22:48;15.27;;;12.10;;
2720;SDS011;1368;49.484;11.112;2023-04-15T03:25:13;18.03;;;12.27;;
2720;SDS011;1368;49.484;11.112;2023-04-15T03:27:40;15.80;;;12.60;;
2720;SDS011;1368;49.484;11.112;2023-04-15T03:30:06;13.20;;;11.30;;
2720;SDS011;1368;49.484;11.112;2023-04-15T03:32:32;14.50;;;12.93;;
2720;SDS011;1368;49.484;11.112;2023-04-15T03:34:58;20.33;;;11.50;;
2720;SDS011;1368;49.484;11.112;2023-04-15T03:37:23;16.80;;;12.20;;
2720;SDS011;1368;49.484;11.112;2023-04-15T03:39:49;15.23;;;12.27;;
2720;SDS011;1368;49.484;11.112;2023-04-15T03:42:15;15.70;;;12.40;;
2720;SDS011;1368;49.484;11.112;2023-04-15T03:44:40;17.20;;;13.53;;
2720;SDS011;1368;49.484;11.112;2023-04-15T03:47:06;18.17;;;13.90;;
2720;SDS011;1368;49.484;11.112;2023-04-15T03:49:31;17.17;;;12.70;;
2720;SDS011;1368;49.484;11.112;2023-04-15T03:51:57;16.90;;;13.03;;
2720;SDS011;1368;49.484;11.112;2023-04-15T03:54:23;16.00;;;13.97;;
2720;SDS011;1368;49.484;11.112;2023-04-15T03:56:49;17.83;;;13.07;;
2720;SDS011;1368;49.484;11.112;2023-04-15T03:59:14;15.10;;;12.57;;
2720;SDS011;1368;49.484;11.112;2023-04-15T04:01:40;15.93;;;13.43;;
2720;SDS011;1368;49.484;11.112;2023-04-15T04:04:06;14.93;;;12.40;;
2720;SDS011;1368;49.484;11.112;2023-04-15T04:06:31;14.93;;;12.37;;
2720;SDS011;1368;49.484;11.112;2023-04-15T04:08:57;19.57;;;12.90;;
2720;SDS011;1368;49.484;11.112;2023-04-15T04:11:23;16.83;;;13.03;;
2720;SDS011;1368;49.484;11.112;2023-04-15T04:13:48;19.57;;;13.50;;
2720;SDS011;1368;49.484;11.112;2023-04-15T04:16:14;14.70;;;12.10;;
2720;SDS011;1368;49.484;11.112;2023-04-15T04:18:39;15.40;;;12.57;;
2720;SDS011;1368;49.484;11.112;2023-04-15T04:21:05;16.10;;;12.60;;
2720;SDS011;1368;49.484;11.112;2023-04-15T04:23:30;15.53;;;13.80;;
2720;SDS011;1368;49.484;11.112;2023-04-15T04:25:57;19.73;;;12.97;;
2720;SDS011;1368;49.484;11.112;2023-04-15T04:28:22;14.47;;;11.80;;
2720;SDS011;1368;49.484;11.112;2023-04-15T04:30:48;14.50;;;11.83;;
2720;SDS011;1368;49.484;11.112;2023-04-15T04:33:13;18.47;;;13.17;;
2720;SDS011;1368;49.484;11.112;2023-04-15T04:35:39;16.70;;;13.07;;
2720;SDS011;1368;49.484;11.112;2023-04-15T04:38:04;14.70;;;11.83;;
2720;SDS011;1368;49.484;11.112;2023-04-15T04:40:30;15.67;;;13.13;;
2720;SDS011;1368;49.484;11.112;2023-04-15T04:42:56;19.30;;;12.73;;
2720;SDS011;1368;49.484;11.112;2023-04-15T04:45:21;17.93;;;12.57;;
2720;SDS011;1368;49.484;11.112;2023-04-15T04:47:47;13.30;;;11.87;;
2720;SDS011;1368;49.484;11.112;2023-04-15T04:50:13;17.83;;;12.40;;
2720;SDS011;1368;49.484;11.112;2023-04-15T04:52:38;15.03;;;13.13;;
2720;SDS011;1368;49.484;11.112;2023-04-15T04:55:04;16.50;;;12.63;;
2720;SDS011;1368;49.484;11.112;2023-04-15T04:57:30;14.20;;;11.30;;
2720;SDS011;1368;49.484;11.112;2023-04-15T04:59:56;14.50;;;10.70;;
2720;SDS011;1368;49.484;11.112;2023-04-15T05:02:21;15.33;;;12.20;;
2720;SDS011;1368;49.484;11.112;2023-04-15T05:04:47;18.40;;;11.37;;
2720;SDS011;1368;49.484;11.112;2023-04-15T05:07:14;13.83;;;10.80;;
2720;SDS011;1368;49.484;11.112;2023-04-15T05:09:39;17.93;;;11.60;;
2720;SDS011;1368;49.484;11.112;2023-04-15T05:12:06;12.13;;;10.73;;
2720;SDS011;1368;49.484;11.112;2023-04-15T05:14:32;14.10;;;11.37;;
2720;SDS011;1368;49.484;11.112;2023-04-15T05:16:58;15.33;;;12.10;;
2720;SDS011;1368;49.484;11.112;2023-04-15T05:19:23;12.00;;;10.47;;
2720;SDS011;1368;49.484;11.112;2023-04-15T05:21:49;16.23;;;11.93;;
2720;SDS011;1368;49.484;11.112;2023-04-15T05:24:15;13.90;;;11.00;;
2720;SDS011;1368;49.484;11.112;2023-04-15T05:26:40;13.73;;;10.90;;
2720;SDS011;1368;49.484;11.112;2023-04-15T05:29:06;19.43;;;11.87;;
2720;SDS011;1368;49.484;11.112;2023-04-15T05:31:32;15.33;;;12.00;;
2720;SDS011;1368;49.484;11.112;2023-04-15T05:33:57;16.30;;;11.20;;
2720;SDS011;1368;49.484;11.112;2023-04-15T05:36:23;16.67;;;11.27;;
2720;SDS011;1368;49.484;11.112;2023-04-15T05:38:48;18.40;;;12.90;;
2720;SDS011;1368;49.484;11.112;2023-04-15T05:41:14;15.73;;;11.93;;
2720;SDS011;1368;49.484;11.112;2023-04-15T05:43:40;15.67;;;11.90;;
2720;SDS011;1368;49.484;11.112;2023-04-15T05:46:06;14.60;;;11.30;;
2720;SDS011;1368;49.484;11.112;2023-04-15T05:48:32;15.37;;;9.97;;
2720;SDS011;1368;49.484;11.112;2023-04-15T05:50:58;10.80;;;9.40;;
2720;SDS011;1368;49.484;11.112;2023-04-15T05:53:24;16.00;;;12.10;;
2720;SDS011;1368;49.484;11.112;2023-04-15T05:55:50;14.17;;;11.00;;
2720;SDS011;1368;49.484;11.112;2023-04-15T05:58:15;13.63;;;11.33;;
2720;SDS011;1368;49.484;11.112;2023-04-15T06:00:41;19.13;;;11.50;;
2720;SDS011;1368;49.484;11.112;2023-04-15T06:03:06;11.90;;;10.27;;
2720;SDS011;1368;49.484;11.112;2023-04-15T06:05:32;16.63;;;12.63;;
2720;SDS011;1368;49.484;11.112;2023-04-15T06:07:58;15.17;;;11.40;;
2720;SDS011;1368;49.484;11.112;2023-04-15T06:10:24;15.23;;;12.57;;
2720;SDS011;1368;49.484;11.112;2023-04-15T06:12:51;16.63;;;12.50;;
2720;SDS011;1368;49.484;11.112;2023-04-15T06:15:17;15.83;;;12.00;;
2720;SDS011;1368;49.484;11.112;2023-04-15T06:17:42;14.17;;;11.30;;
2720;SDS011;1368;49.484;11.112;2023-04-15T06:20:08;13.33;;;10.50;;
2720;SDS011;1368;49.484;11.112;2023-04-15T06:22:35;13.43;;;11.30;;
2720;SDS011;1368;49.484;11.112;2023-04-15T06:25:02;11.37;;;9.93;;
2720;SDS011;1368;49.484;11.112;2023-04-15T06:27:27;14.70;;;10.47;;
2720;SDS011;1368;49.484;11.112;2023-04-15T06:29:53;14.20;;;12.23;;
2720;SDS011;1368;49.484;11.112;2023-04-15T06:32:18;17.50;;;11.73;;
2720;SDS011;1368;49.484;11.112;2023-04-15T06:34:44;12.70;;;10.33;;
2720;SDS011;1368;49.484;11.112;2023-04-15T06:37:09;13.90;;;11.20;;
2720;SDS011;1368;49.484;11.112;2023-04-15T06:39:39;13.87;;;11.27;;
2720;SDS011;1368;49.484;11.112;2023-04-15T06:42:05;12.37;;;10.73;;
2720;SDS011;1368;49.484;11.112;2023-04-15T06:44:30;15.17;;;12.10;;
2720;SDS011;1368;49.484;11.112;2023-04-15T06:46:56;15.97;;;12.30;;
2720;SDS011;1368;49.484;11.112;2023-04-15T06:49:21;14.70;;;11.93;;
2720;SDS011;1368;49.484;11.112;2023-04-15T06:51:47;19.20;;;14.00;;
2720;SDS011;1368;49.484;11.112;2023-04-15T06:54:13;15.83;;;13.57;;
2720;SDS011;1368;49.484;11.112;2023-04-15T06:56:38;20.40;;;14.47;;
2720;SDS011;1368;49.484;11.112;2023-04-15T06:59:04;15.40;;;13.50;;
2720;SDS011;1368;49.484;11.112;2023-04-15T07:01:30;17.03;;;13.23;;
2720;SDS011;1368;49.484;11.112;2023-04-15T07:03:56;18.03;;;13.07;;
2720;SDS011;1368;49.484;11.112;2023-04-15T07:06:21;17.50;;;12.73;;
2720;SDS011;1368;49.484;11.112;2023-04-15T07:08:47;13.37;;;11.47;;
2720;SDS011;1368;49.484;11.112;2023-04-15T07:11:12;16.13;;;12.33;;
2720;SDS011;1368;49.484;11.112;2023-04-15T07:13:38;12.67;;;10.33;;
2720;SDS011;1368;49.484;11.112;2023-04-15T07:16:04;13.67;;;10.83;;
2720;SDS011;1368;49.484;11.112;2023-04-15T07:18:29;13.43;;;10.83;;
2720;SDS011;1368;49.484;11.112;2023-04-15T07:20:55;13.40;;;10.83;;
2720;SDS011;1368;49.484;11.112;2023-04-15T07:23:21;13.40;;;11.03;;
2720;SDS011;1368;49.484;11.112;2023-04-15T07:25:47;17.90;;;10.30;;
2720;SDS011;1368;49.484;11.112;2023-04-15T07:28:13;15.93;;;11.57;;
2720;SDS011;1368;49.484;11.112;2023-04-15T07:30:39;13.70;;;11.70;;
2720;SDS011;1368;49.484;11.112;2023-04-15T07:33:04;15.57;;;11.63;;
2720;SDS011;1368;49.484;11.112;2023-04-15T07:35:30;17.53;;;12.17;;
2720;SDS011;1368;49.484;11.112;2023-04-15T07:37:55;13.17;;;11.80;;
2720;SDS011;1368;49.484;11.112;2023-04-15T07:40:21;13.90;;;10.80;;
2720;SDS011;1368;49.484;11.112;2023-04-15T07:42:47;12.43;;;11.13;;
2720;SDS011;1368;49.484;11.112;2023-04-15T07:45:13;17.10;;;13.00;;
2720;SDS011;1368;49.484;11.112;2023-04-15T07:47:39;11.10;;;7.93;;
2720;SDS011;1368;49.484;11.112;2023-04-15T07:50:06;10.63;;;8.50;;
2720;SDS011;1368;49.484;11.112;2023-04-15T07:52:33;12.30;;;9.90;;
2720;SDS011;1368;49.484;11.112;2023-04-15T07:55:03;12.27;;;9.00;;
2720;SDS011;1368;49.484;11.112;2023-04-15T07:57:33;11.80;;;9.33;;
2720;SDS011;1368;49.484;11.112;2023-04-15T08:00:02;9.53;;;7.00;;
2720;SDS011;1368;49.484;11.112;2023-04-15T08:02:31;10.77;;;7.93;;
2720;SDS011;1368;49.484;11.112;2023-04-15T08:04:57;8.40;;;6.47;;
2720;SDS011;1368;49.484;11.112;2023-04-15T08:07:23;8.50;;;6.50;;
2720;SDS011;1368;49.484;11.112;2023-04-15T08:09:49;9.37;;;6.70;;
2720;SDS011;1368;49.484;11.112;2023-04-15T08:12:15;6.80;;;5.50;;
2720;SDS011;1368;49.484;11.112;2023-04-15T08:14:41;7.53;;;5.63;;
2720;SDS011;1368;49.484;11.112;2023-04-15T08:17:06;7.53;;;5.90;;
2720;SDS011;1368;49.484;11.112;2023-04-15T08:19:32;6.67;;;5.77;;
2720;SDS011;1368;49.484;11.112;2023-04-15T08:21:58;8.07;;;6.30;;
2720;SDS011;1368;49.484;11.112;2023-04-15T08:24:23;7.87;;;5.93;;
2720;SDS011;1368;49.484;11.112;2023-04-15T08:26:50;8.63;;;6.50;;
2720;SDS011;1368;49.484;11.112;2023-04-15T08:29:16;9.17;;;6.40;;
2720;SDS011;1368;49.484;11.112;2023-04-15T08:31:42;8.47;;;6.93;;
2720;SDS011;1368;49.484;11.112;2023-04-15T08:34:07;8.50;;;6.17;;
2720;SDS011;1368;49.484;11.112;2023-04-15T08:36:33;7.27;;;5.73;;
2720;SDS011;1368;49.484;11.112;2023-04-15T08:38:59;7.13;;;5.30;;
2720;SDS011;1368;49.484;11.112;2023-04-15T08:41:29;6.63;;;5.10;;
2720;SDS011;1368;49.484;11.112;2023-04-15T08:44:04;8.07;;;5.43;;
2720;SDS011;1368;49.484;11.112;2023-04-15T08:46:30;6.27;;;4.80;;
2720;SDS011;1368;49.484;11.112;2023-04-15T08:48:58;6.60;;;4.90;;
2720;SDS011;1368;49.484;11.112;2023-04-15T08:51:27;8.87;;;5.90;;
2720;SDS011;1368;49.484;11.112;2023-04-15T08:53:53;7.43;;;5.17;;
2720;SDS011;1368;49.484;11.112;2023-04-15T08:56:20;8.83;;;7.13;;
2720;SDS011;1368;49.484;11.112;2023-04-15T08:58:48;7.43;;;5.10;;
2720;SDS011;1368;49.484;11.112;2023-04-15T09:01:14;7.07;;;5.30;;
2720;SDS011;1368;49.484;11.112;2023-04-15T09:03:41;6.60;;;4.90;;
2720;SDS011;1368;49.484;11.112;2023-04-15T09:06:06;7.20;;;5.30;;
2720;SDS011;1368;49.484;11.112;2023-04-15T09:08:32;10.37;;;5.77;;
2720;SDS011;1368;49.484;11.112;2023-04-15T09:11:00;7.43;;;5.60;;
2720;SDS011;1368;49.484;11.112;2023-04-15T09:13:28;8.53;;;5.97;;
2720;SDS011;1368;49.484;11.112;2023-04-15T09:15:55;8.30;;;6.33;;
2720;SDS011;1368;49.484;11.112;2023-04-15T09:18:32;10.47;;;6.27;;
2720;SDS011;1368;49.484;11.112;2023-04-15T09:21:05;8.50;;;6.40;;
2720;SDS011;1368;49.484;11.112;2023-04-15T09:23:33;8.37;;;6.03;;
2720;SDS011;1368;49.484;11.112;2023-04-15T09:26:00;7.47;;;5.17;;
2720;SDS011;1368;49.484;11.112;2023-04-15T09:28:27;8.30;;;4.60;;
2720;SDS011;1368;49.484;11.112;2023-04-15T09:30:59;13.60;;;6.50;;
2720;SDS011;1368;49.484;11.112;2023-04-15T09:33:25;9.60;;;6.30;;
2720;SDS011;1368;49.484;11.112;2023-04-15T09:35:59;18.43;;;6.63;;
2720;SDS011;1368;49.484;11.112;2023-04-15T09:38:26;7.90;;;5.80;;
2720;SDS011;1368;49.484;11.112;2023-04-15T09:40:52;7.83;;;5.80;;
2720;SDS011;1368;49.484;11.112;2023-04-15T09:43:17;8.10;;;6.40;;
2720;SDS011;1368;49.484;11.112;2023-04-15T09:45:46;10.37;;;6.33;;
2720;SDS011;1368;49.484;11.112;2023-04-15T09:50:50;10.33;;;5.90;;
2720;SDS011;1368;49.484;11.112;2023-04-15T09:53:21;10.23;;;6.77;;
2720;SDS011;1368;49.484;11.112;2023-04-15T09:55:49;8.17;;;5.43;;
2720;SDS011;1368;49.484;11.112;2023-04-15T09:58:18;7.40;;;5.27;;
2720;SDS011;1368;49.484;11.112;2023-04-15T10:00:49;6.33;;;4.90;;
2720;SDS011;1368;49.484;11.112;2023-04-15T10:03:22;10.90;;;6.47;;
2720;SDS011;1368;49.484;11.112;2023-04-15T10:05:50;11.77;;;6.53;;
2720;SDS011;1368;49.484;11.112;2023-04-15T10:08:18;5.77;;;5.07;;
2720;SDS011;1368;49.484;11.112;2023-04-15T10:10:46;8.57;;;5.10;;
2720;SDS011;1368;49.484;11.112;2023-04-15T10:13:12;8.00;;;5.03;;
2720;SDS011;1368;49.484;11.112;2023-04-15T10:15:41;5.60;;;4.70;;
2720;SDS011;1368;49.484;11.112;2023-04-15T10:18:10;6.20;;;4.10;;
2720;SDS011;1368;49.484;11.112;2023-04-15T10:20:37;7.23;;;4.80;;
2720;SDS011;1368;49.484;11.112;2023-04-15T10:23:03;6.20;;;4.57;;
2720;SDS011;1368;49.484;11.112;2023-04-15T10:25:29;8.90;;;5.77;;
2720;SDS011;1368;49.484;11.112;2023-04-15T10:27:57;8.53;;;5.57;;
2720;SDS011;1368;49.484;11.112;2023-04-15T10:30:24;7.50;;;5.10;;
2720;SDS011;1368;49.484;11.112;2023-04-15T10:32:50;6.10;;;4.90;;
2720;SDS011;1368;49.484;11.112;2023-04-15T10:35:17;8.30;;;5.47;;
2720;SDS011;1368;49.484;11.112;2023-04-15T10:37:45;9.17;;;5.40;;
2720;SDS011;1368;49.484;11.112;2023-04-15T10:40:23;8.23;;;5.43;;
2720;SDS011;1368;49.484;11.112;2023-04-15T10:42:51;7.53;;;5.20;;
2720;SDS011;1368;49.484;11.112;2023-04-15T10:45:17;7.10;;;4.70;;
2720;SDS011;1368;49.484;11.112;2023-04-15T10:47:43;5.83;;;4.13;;
2720;SDS011;1368;49.484;11.112;2023-04-15T10:50:09;5.10;;;4.00;;
2720;SDS011;1368;49.484;11.112;2023-04-15T10:52:36;4.93;;;4.13;;
2720;SDS011;1368;49.484;11.112;2023-04-15T10:57:40;4.13;;;3.13;;
2720;SDS011;1368;49.484;11.112;2023-04-15T11:08:03;3.60;;;2.80;;
2720;SDS011;1368;49.484;11.112;2023-04-15T11:13:19;5.10;;;3.20;;
2720;SDS011;1368;49.484;11.112;2023-04-15T11:15:47;4.80;;;3.50;;
2720;SDS011;1368;49.484;11.112;2023-04-15T11:20:44;3.90;;;2.87;;
2720;SDS011;1368;49.484;11.112;2023-04-15T11:23:14;3.80;;;2.80;;
2720;SDS011;1368;49.484;11.112;2023-04-15T11:25:41;4.07;;;2.90;;
2720;SDS011;1368;49.484;11.112;2023-04-15T11:28:08;4.70;;;3.17;;
2720;SDS011;1368;49.484;11.112;2023-04-15T11:30:35;4.07;;;3.03;;
2720;SDS011;1368;49.484;11.112;2023-04-15T11:33:03;8.00;;;2.80;;
2720;SDS011;1368;49.484;11.112;2023-04-15T11:35:30;4.37;;;3.10;;
2720;SDS011;1368;49.484;11.112;2023-04-15T11:37:56;4.90;;;3.20;;
2720;SDS011;1368;49.484;11.112;2023-04-15T11:40:27;3.43;;;2.50;;
2720;SDS011;1368;49.484;11.112;2023-04-15T11:43:03;4.67;;;2.87;;
2720;SDS011;1368;49.484;11.112;2023-04-15T11:45:48;3.47;;;2.50;;
2720;SDS011;1368;49.484;11.112;2023-04-15T11:48:23;3.23;;;2.63;;
2720;SDS011;1368;49.484;11.112;2023-04-15T11:50:54;3.50;;;2.73;;
2720;SDS011;1368;49.484;11.112;2023-04-15T11:53:24;3.40;;;2.10;;
2720;SDS011;1368;49.484;11.112;2023-04-15T11:56:01;3.47;;;2.67;;
2720;SDS011;1368;49.484;11.112;2023-04-15T11:58:28;4.10;;;2.30;;
2720;SDS011;1368;49.484;11.112;2023-04-15T12:00:57;3.30;;;2.10;;
2720;SDS011;1368;49.484;11.112;2023-04-15T12:06:10;3.83;;;1.97;;
2720;SDS011;1368;49.484;11.112;2023-04-15T12:08:49;2.30;;;1.47;;
2720;SDS011;1368;49.484;11.112;2023-04-15T12:11:15;4.70;;;1.93;;
2720;SDS011;1368;49.484;11.112;2023-04-15T12:13:48;3.47;;;2.50;;
2720;SDS011;1368;49.484;11.112;2023-04-15T12:16:18;2.57;;;1.80;;
2720;SDS011;1368;49.484;11.112;2023-04-15T12:18:44;2.40;;;1.70;;
2720;SDS011;1368;49.484;11.112;2023-04-15T12:21:11;3.17;;;1.87;;
2720;SDS011;1368;49.484;11.112;2023-04-15T12:24:00;3.77;;;2.67;;
2720;SDS011;1368;49.484;11.112;2023-04-15T12:26:26;3.70;;;2.90;;
2720;SDS011;1368;49.484;11.112;2023-04-15T12:29:00;3.17;;;2.30;;
2720;SDS011;1368;49.484;11.112;2023-04-15T12:31:28;2.70;;;2.30;;
2720;SDS011;1368;49.484;11.112;2023-04-15T12:33:55;3.10;;;1.80;;
2720;SDS011;1368;49.484;11.112;2023-04-15T12:36:21;3.20;;;2.20;;
2720;SDS011;1368;49.484;11.112;2023-04-15T12:38:47;2.60;;;2.00;;
2720;SDS011;1368;49.484;11.112;2023-04-15T12:41:13;3.47;;;2.00;;
2720;SDS011;1368;49.484;11.112;2023-04-15T12:43:39;2.50;;;2.07;;
2720;SDS011;1368;49.484;11.112;2023-04-15T12:46:04;3.53;;;2.03;;
2720;SDS011;1368;49.484;11.112;2023-04-15T12:48:32;3.03;;;2.17;;
2720;SDS011;1368;49.484;11.112;2023-04-15T12:50:58;2.40;;;1.70;;
2720;SDS011;1368;49.484;11.112;2023-04-15T12:53:24;2.50;;;2.10;;
2720;SDS011;1368;49.484;11.112;2023-04-15T12:55:50;2.77;;;2.03;;
2720;SDS011;1368;49.484;11.112;2023-04-15T12:58:16;2.80;;;1.90;;
2720;SDS011;1368;49.484;11.112;2023-04-15T13:00:41;3.10;;;1.70;;
2720;SDS011;1368;49.484;11.112;2023-04-15T13:03:07;3.07;;;2.37;;
2720;SDS011;1368;49.484;11.112;2023-04-15T13:05:33;2.40;;;1.90;;
2720;SDS011;1368;49.484;11.112;2023-04-15T13:08:00;2.47;;;1.80;;
2720;SDS011;1368;49.484;11.112;2023-04-15T13:10:26;2.27;;;1.53;;
2720;SDS011;1368;49.484;11.112;2023-04-15T13:12:53;2.13;;;1.40;;
2720;SDS011;1368;49.484;11.112;2023-04-15T13:15:20;2.40;;;1.60;;
2720;SDS011;1368;49.484;11.112;2023-04-15T13:17:46;2.13;;;1.40;;
2720;SDS011;1368;49.484;11.112;2023-04-15T13:20:12;2.40;;;1.60;;
2720;SDS011;1368;49.484;11.112;2023-04-15T13:22:38;2.60;;;1.60;;
2720;SDS011;1368;49.484;11.112;2023-04-15T13:25:04;3.17;;;2.20;;
2720;SDS011;1368;49.484;11.112;2023-04-15T13:27:31;2.43;;;1.57;;
2720;SDS011;1368;49.484;11.112;2023-04-15T13:29:57;2.80;;;1.60;;
2720;SDS011;1368;49.484;11.112;2023-04-15T13:32:23;3.50;;;1.60;;
2720;SDS011;1368;49.484;11.112;2023-04-15T13:34:49;2.70;;;1.80;;
2720;SDS011;1368;49.484;11.112;2023-04-15T13:37:15;2.50;;;1.50;;
2720;SDS011;1368;49.484;11.112;2023-04-15T13:39:40;3.60;;;1.50;;
2720;SDS011;1368;49.484;11.112;2023-04-15T13:42:06;3.07;;;1.70;;
2720;SDS011;1368;49.484;11.112;2023-04-15T13:44:31;2.30;;;1.50;;
2720;SDS011;1368;49.484;11.112;2023-04-15T13:46:57;2.37;;;1.70;;
2720;SDS011;1368;49.484;11.112;2023-04-15T13:49:22;2.63;;;1.90;;
2720;SDS011;1368;49.484;11.112;2023-04-15T13:51:48;3.30;;;2.10;;
2720;SDS011;1368;49.484;11.112;2023-04-15T13:54:14;2.80;;;1.90;;
2720;SDS011;1368;49.484;11.112;2023-04-15T13:56:40;2.00;;;1.50;;
2720;SDS011;1368;49.484;11.112;2023-04-15T13:59:05;3.23;;;2.20;;
2720;SDS011;1368;49.484;11.112;2023-04-15T14:01:33;2.80;;;2.00;;
2720;SDS011;1368;49.484;11.112;2023-04-15T14:03:59;3.97;;;2.30;;
2720;SDS011;1368;49.484;11.112;2023-04-15T14:06:24;3.40;;;2.60;;
2720;SDS011;1368;49.484;11.112;2023-04-15T14:08:51;2.90;;;2.00;;
2720;SDS011;1368;49.484;11.112;2023-04-15T14:11:17;3.13;;;2.80;;
2720;SDS011;1368;49.484;11.112;2023-04-15T14:13:42;6.03;;;2.10;;
2720;SDS011;1368;49.484;11.112;2023-04-15T14:16:08;3.60;;;2.50;;
2720;SDS011;1368;49.484;11.112;2023-04-15T14:18:34;3.53;;;3.00;;
2720;SDS011;1368;49.484;11.112;2023-04-15T14:21:01;3.63;;;2.50;;
2720;SDS011;1368;49.484;11.112;2023-04-15T14:23:26;4.10;;;2.47;;
2720;SDS011;1368;49.484;11.112;2023-04-15T14:25:52;3.87;;;2.63;;
2720;SDS011;1368;49.484;11.112;2023-04-15T14:28:18;3.60;;;2.80;;
2720;SDS011;1368;49.484;11.112;2023-04-15T14:30:43;5.43;;;3.10;;
2720;SDS011;1368;49.484;11.112;2023-04-15T14:33:09;4.00;;;3.13;;
2720;SDS011;1368;49.484;11.112;2023-04-15T14:35:35;3.27;;;2.70;;
2720;SDS011;1368;49.484;11.112;2023-04-15T14:38:00;5.53;;;3.17;;
2720;SDS011;1368;49.484;11.112;2023-04-15T14:40:26;3.27;;;2.63;;
2720;SDS011;1368;49.484;11.112;2023-04-15T14:42:51;4.20;;;2.80;;
2720;SDS011;1368;49.484;11.112;2023-04-15T14:45:17;3.93;;;3.23;;
2720;SDS011;1368;49.484;11.112;2023-04-15T14:47:42;4.60;;;3.10;;
2720;SDS011;1368;49.484;11.112;2023-04-15T14:50:08;4.00;;;3.23;;
2720;SDS011;1368;49.484;11.112;2023-04-15T14:52:34;4.90;;;3.87;;
2720;SDS011;1368;49.484;11.112;2023-04-15T14:55:06;4.00;;;3.30;;
2720;SDS011;1368;49.484;11.112;2023-04-15T14:57:36;3.60;;;2.57;;
2720;SDS011;1368;49.484;11.112;2023-04-15T15:00:02;3.53;;;2.87;;
2720;SDS011;1368;49.484;11.112;2023-04-15T15:02:29;4.13;;;3.30;;